This is the latest recevied weather packets stored in our database for station/object K4ZZR. If no packets are shown the sender has not sent any weather packets the latest 10 day(s).
| Time | Temp. | Humidity | Pressure | Rain* | Wind** | Luminosity | Snow |
|---|---|---|---|---|---|---|---|
| 1778182829 | 31.11° C | 70% | 1013.4 hPa | 0 mm | - | 724 W/m² | - |
| 1778182527 | 31.67° C | 61% | 1013.5 hPa | 0 mm | - | 690 W/m² | - |
| 1778182223 | 30.56° C | 68% | 1013.8 hPa | 0 mm | - | 716 W/m² | - |
| 1778181920 | 31.11° C | 68% | 1013.7 hPa | 0 mm | - | 741 W/m² | - |
| 1778181617 | 31.67° C | 65% | 1013.9 hPa | 0 mm | - | 757 W/m² | - |
| 1778181312 | 31.11° C | 69% | 1013.8 hPa | 0 mm | - | 759 W/m² | - |
| 1778181009 | 31.67° C | 68% | 1014.1 hPa | 0 mm | - | 792 W/m² | - |
| 1778180706 | 32.22° C | 62% | 1014 hPa | 0 mm | - | 769 W/m² | - |
| 1778180405 | 31.67° C | 68% | 1014.2 hPa | 0 mm | - | 843 W/m² | - |
| 1778180103 | 31.11° C | 62% | 1014.1 hPa | 0 mm | - | 215 W/m² | - |
| 1778179799 | 31.67° C | 68% | 1014.4 hPa | 0 mm | - | 867 W/m² | - |
| 1778179497 | 31.67° C | 67% | 1014.6 hPa | 0 mm | - | 863 W/m² | - |
| 1778179195 | 31.11° C | 68% | 1014.5 hPa | 0 mm | - | 856 W/m² | - |
| 1778178890 | 33.33° C | 52% | 1014.7 hPa | 0 mm | - | 892 W/m² | - |
| 1778178588 | 32.78° C | 55% | 1014.8 hPa | 0 mm | - | 886 W/m² | - |
| 1778178284 | 32.22° C | 56% | 1014.7 hPa | 0 mm | - | 924 W/m² | - |
| 1778177980 | 31.67° C | 58% | 1015 hPa | 0 mm | - | 220 W/m² | - |
| 1778177676 | 31.67° C | 58% | 1014.9 hPa | 0 mm | - | 207 W/m² | - |
| 1778177373 | 32.22° C | 55% | 1014.9 hPa | 0 mm | - | 941 W/m² | - |
| 1778177070 | 32.22° C | 56% | 1014.6 hPa | 0 mm | - | 934 W/m² | - |
| 1778176766 | 32.22° C | 57% | 1014.7 hPa | 0 mm | - | 943 W/m² | - |
| 1778176463 | 32.22° C | 58% | 1014.7 hPa | 0 mm | - | 946 W/m² | - |
| 1778176161 | 31.67° C | 60% | 1014.8 hPa | 0 mm | - | 858 W/m² | - |
| 1778175858 | 31.67° C | 57% | 1014.6 hPa | 0 mm | - | 768 W/m² | - |
| 1778175555 | 31.67° C | 57% | 1014.9 hPa | 0 mm | - | 986 W/m² | - |
* Rain latest hour (hover to see other rain measurements)
** Current wind speed in m/s (hover to see current wind gust speed)